createdAt,value
2023-03-01T00:02:41.667Z,102320.44
2023-03-01T00:07:44.149Z,102318.69
2023-03-01T00:12:46.291Z,102312.53
2023-03-01T00:17:48.339Z,102322.31
2023-03-01T00:22:50.442Z,102333.69
2023-03-01T00:27:52.439Z,102339.19
2023-03-01T00:32:56.252Z,102347.00
2023-03-01T00:37:59.126Z,102340.75
2023-03-01T00:43:01.071Z,102338.97
2023-03-01T00:48:03.020Z,102335.53
2023-03-01T00:53:06.302Z,102335.47
2023-03-01T00:58:08.273Z,102327.53
2023-03-01T01:03:10.585Z,102318.56
2023-03-01T01:08:12.905Z,102328.44
2023-03-01T01:13:15.336Z,102330.16
2023-03-01T01:18:22.078Z,102323.16
2023-03-01T01:23:24.332Z,102304.50
2023-03-01T01:28:26.331Z,102297.53
2023-03-01T01:33:28.741Z,102293.06
2023-03-01T01:38:30.851Z,102289.53
2023-03-01T01:43:36.796Z,102286.25
2023-03-01T01:49:01.770Z,102271.19
2023-03-01T01:54:03.779Z,102262.25
2023-03-01T01:59:06.440Z,102257.78
2023-03-01T02:04:08.608Z,102254.28
2023-03-01T02:09:14.986Z,102249.91
2023-03-01T02:14:18.662Z,102243.84
2023-03-01T02:19:41.004Z,102239.41
2023-03-01T02:24:55.818Z,102223.59
2023-03-01T02:29:57.933Z,102216.41
2023-03-01T02:35:00.191Z,102218.16
2023-03-01T02:40:07.725Z,102219.16
2023-03-01T02:45:11.522Z,102227.09
2023-03-01T02:50:31.950Z,102234.97
2023-03-01T02:55:33.853Z,102231.53
2023-03-01T03:00:46.731Z,102234.09
2023-03-01T03:05:49.677Z,102233.19
2023-03-01T03:10:51.539Z,102236.56
2023-03-01T03:15:53.496Z,102222.63
2023-03-01T03:20:55.913Z,102232.31
2023-03-01T03:25:57.768Z,102232.25
2023-03-01T03:31:04.685Z,102226.19
2023-03-01T03:36:11.139Z,102220.84
2023-03-01T03:41:14.398Z,102220.91
2023-03-01T03:46:17.780Z,102225.19
2023-03-01T03:51:20.410Z,102214.59
2023-03-01T03:56:22.783Z,102219.16
2023-03-01T04:01:24.950Z,102215.53
2023-03-01T04:06:27.056Z,102208.59
2023-03-01T04:11:29.281Z,102207.66
2023-03-01T04:16:31.383Z,102198.00
2023-03-01T04:21:33.343Z,102202.38
2023-03-01T04:26:35.534Z,102192.66
2023-03-01T04:31:37.617Z,102185.66
2023-03-01T04:36:41.374Z,102178.50
2023-03-01T04:41:44.623Z,102171.59
2023-03-01T04:46:46.520Z,102164.50
2023-03-01T04:51:48.325Z,102157.34
2023-03-01T04:56:50.293Z,102151.13
2023-03-01T05:01:53.537Z,102154.78
2023-03-01T05:06:55.480Z,102153.97
2023-03-01T05:11:57.382Z,102158.41
2023-03-01T05:17:05.241Z,102163.66
2023-03-01T05:22:07.144Z,102165.28
2023-03-01T05:27:08.956Z,102150.34
2023-03-01T05:32:11.074Z,102154.88
2023-03-01T05:37:16.079Z,102158.44
2023-03-01T05:42:18.592Z,102153.09
2023-03-01T05:47:22.492Z,102157.50
2023-03-01T05:52:24.541Z,102154.78
2023-03-01T05:57:27.103Z,102155.81
2023-03-01T06:02:30.132Z,102147.06
2023-03-01T06:07:32.891Z,102147.00
2023-03-01T06:12:38.921Z,102143.44
2023-03-01T06:17:42.113Z,102137.34
2023-03-01T06:22:45.206Z,102143.56
2023-03-01T06:27:47.681Z,102136.44
2023-03-01T06:32:51.146Z,102147.06
2023-03-01T06:37:54.220Z,102154.09
2023-03-01T06:42:56.582Z,102154.03
2023-03-01T06:48:08.704Z,102155.00
2023-03-01T06:53:10.580Z,102144.44
2023-03-01T06:58:12.601Z,102147.00
2023-03-01T07:03:18.872Z,102151.50
2023-03-01T07:08:21.012Z,102150.00
2023-03-01T07:13:23.965Z,102151.75
2023-03-01T07:18:27.555Z,102146.34
2023-03-01T07:23:30.356Z,102148.31
2023-03-01T07:28:37.079Z,102148.31
2023-03-01T07:33:38.987Z,102148.44
2023-03-01T07:38:40.933Z,102143.16
2023-03-01T07:43:42.721Z,102150.81
2023-03-01T07:48:46.178Z,102141.94
2023-03-01T07:53:50.068Z,102141.72
2023-03-01T07:58:53.416Z,102145.59
2023-03-01T08:03:55.562Z,102144.63
2023-03-01T08:08:57.977Z,102137.50
2023-03-01T08:14:00.116Z,102137.19
2023-03-01T08:19:10.067Z,102143.50
2023-03-01T08:24:12.241Z,102133.72
2023-03-01T08:29:14.401Z,102133.94
2023-03-01T08:34:19.013Z,102126.72
2023-03-01T08:39:22.082Z,102113.72
2023-03-01T08:44:24.595Z,102111.81
2023-03-01T08:49:26.534Z,102103.06
2023-03-01T08:54:28.580Z,102111.88
2023-03-01T08:59:36.844Z,102115.38
2023-03-01T09:04:39.422Z,102118.06
2023-03-01T09:09:41.351Z,102121.59
2023-03-01T09:14:43.848Z,102119.84
2023-03-01T09:19:46.338Z,102103.00
2023-03-01T09:24:48.240Z,102101.28
2023-03-01T09:29:50.162Z,102103.06
2023-03-01T09:35:07.128Z,102100.34
2023-03-01T09:40:19.961Z,102098.72
2023-03-01T09:45:45.392Z,102103.06
2023-03-01T09:50:50.255Z,102089.91
2023-03-01T09:56:06.308Z,102091.56
2023-03-01T10:01:34.220Z,102096.09
2023-03-01T10:06:36.285Z,102078.50
2023-03-01T10:11:41.558Z,102072.31
2023-03-01T10:16:51.479Z,102067.00
2023-03-01T10:21:54.448Z,102056.34
2023-03-01T10:27:06.653Z,102053.59
2023-03-01T10:32:11.424Z,102042.19
2023-03-01T10:37:27.159Z,102025.31
2023-03-01T10:42:35.028Z,102040.41
2023-03-01T10:47:36.972Z,102033.47
2023-03-01T10:52:42.674Z,102016.59
2023-03-01T10:57:45.403Z,102018.31
2023-03-01T11:03:02.597Z,102011.25
2023-03-01T11:08:05.234Z,102015.44
2023-03-01T11:13:20.756Z,102003.03
2023-03-01T11:18:34.049Z,102008.31
2023-03-01T11:23:51.788Z,102008.06
2023-03-01T11:28:58.540Z,101993.50
2023-03-01T11:34:16.080Z,101983.75
2023-03-01T11:39:24.876Z,101985.63
2023-03-01T11:44:29.667Z,101980.53
2023-03-01T11:50:09.249Z,101985.06
2023-03-01T11:55:21.535Z,101981.31
2023-03-01T12:00:58.402Z,101983.28
2023-03-01T12:06:25.633Z,101973.38
2023-03-01T12:11:55.806Z,101976.03
2023-03-01T12:17:08.285Z,101959.22
2023-03-01T12:22:16.436Z,101946.91
2023-03-01T12:27:36.353Z,101954.16
2023-03-01T12:33:20.622Z,101932.88
2023-03-01T12:38:39.013Z,101933.59
2023-03-01T12:44:05.399Z,101908.81
2023-03-01T12:49:14.169Z,101912.38
2023-03-01T12:54:22.317Z,101908.75
2023-03-01T13:00:16.589Z,101887.84
2023-03-01T13:05:24.464Z,101886.16
2023-03-01T13:10:57.901Z,101879.19
2023-03-01T13:16:25.079Z,101872.91
2023-03-01T13:21:35.658Z,101860.56
2023-03-01T13:27:09.547Z,101854.44
2023-03-01T13:32:24.959Z,101849.16
2023-03-01T13:37:36.906Z,101851.78
2023-03-01T13:42:42.517Z,101842.22
2023-03-01T13:47:46.619Z,101841.06
2023-03-01T13:53:04.411Z,101834.06
2023-03-01T13:58:24.191Z,101819.22
2023-03-01T14:03:26.924Z,101817.38
2023-03-01T14:08:32.429Z,101812.72
2023-03-01T14:13:55.310Z,101820.66
2023-03-01T14:19:00.239Z,101798.69
2023-03-01T14:24:02.350Z,101797.84
2023-03-01T14:29:04.339Z,101794.31
2023-03-01T14:34:06.875Z,101797.97
2023-03-01T14:39:24.142Z,101782.91
2023-03-01T14:44:26.277Z,101783.78
2023-03-01T14:49:32.041Z,101773.19
2023-03-01T14:54:42.522Z,101782.03
2023-03-01T14:59:45.607Z,101775.06
2023-03-01T15:04:59.312Z,101768.88
2023-03-01T15:10:05.314Z,101754.69
2023-03-01T15:15:24.714Z,101753.09
2023-03-01T15:20:31.176Z,101748.47
2023-03-01T15:25:34.624Z,101749.63
2023-03-01T15:30:39.072Z,101740.13
2023-03-01T15:35:46.967Z,101733.38
2023-03-01T15:40:52.145Z,101722.56
2023-03-01T15:45:59.472Z,101719.25
2023-03-01T15:51:02.719Z,101710.06
2023-03-01T15:56:05.002Z,101712.03
2023-03-01T16:01:14.366Z,101697.78
2023-03-01T16:06:16.649Z,101698.56
2023-03-01T16:11:20.863Z,101699.59
2023-03-01T16:16:23.833Z,101695.31
2023-03-01T16:21:26.464Z,101712.81
2023-03-01T16:26:28.916Z,101713.97
2023-03-01T16:31:32.339Z,101714.41
2023-03-01T16:36:34.605Z,101717.00
2023-03-01T16:41:36.430Z,101716.28
2023-03-01T16:46:38.530Z,101713.66
2023-03-01T16:51:40.435Z,101699.69
2023-03-01T16:56:45.453Z,101702.16
2023-03-01T17:01:48.399Z,101692.28
2023-03-01T17:14:42.458Z,101695.81
2023-03-01T17:19:44.702Z,101699.31
2023-03-01T17:24:47.056Z,101705.19
2023-03-01T17:29:48.933Z,101714.59
2023-03-01T17:34:51.061Z,101722.66
2023-03-01T17:39:53.489Z,101737.00
2023-03-01T17:44:55.375Z,101737.19
2023-03-01T17:49:57.251Z,101741.53
2023-03-01T17:54:59.333Z,101744.94
2023-03-01T18:00:01.241Z,101743.78
2023-03-01T18:05:05.626Z,101739.50
2023-03-01T18:10:07.774Z,101742.03
2023-03-01T18:15:10.352Z,101733.88
2023-03-01T18:20:13.480Z,101736.00
2023-03-01T18:25:15.529Z,101729.91
2023-03-01T18:30:17.484Z,101723.19
2023-03-01T18:35:19.275Z,101712.84
2023-03-01T18:40:21.374Z,101706.53
2023-03-01T18:45:23.328Z,101710.81
2023-03-01T18:50:25.214Z,101703.53
2023-03-01T18:55:27.018Z,101700.84
2023-03-01T19:00:28.825Z,101702.59
2023-03-01T19:05:31.195Z,101703.53
2023-03-01T19:10:33.101Z,101692.94
2023-03-01T19:15:35.205Z,101682.59
2023-03-01T19:20:38.915Z,101686.09
2023-03-01T19:25:41.318Z,101694.63
2023-03-01T19:30:43.637Z,101698.34
2023-03-01T19:35:45.547Z,101698.13
2023-03-01T19:40:47.369Z,101693.06
2023-03-01T19:45:53.556Z,101686.66
2023-03-01T19:50:55.373Z,101688.34
2023-03-01T19:55:59.555Z,101690.03
2023-03-01T20:01:01.790Z,101690.13
2023-03-01T20:06:20.358Z,101686.81
2023-03-01T20:11:22.738Z,101688.34
2023-03-01T20:16:26.984Z,101689.44
2023-03-01T20:21:29.131Z,101694.72
2023-03-01T20:26:32.776Z,101696.28
2023-03-01T20:31:34.813Z,101699.91
2023-03-01T20:36:39.097Z,101692.91
2023-03-01T20:41:41.166Z,101698.16
2023-03-01T20:46:43.055Z,101684.06
2023-03-01T20:51:44.961Z,101689.16
2023-03-01T20:56:47.821Z,101684.06
2023-03-01T21:01:50.364Z,101682.16
2023-03-01T21:06:52.508Z,101681.41
2023-03-01T21:11:54.444Z,101693.41
2023-03-01T21:16:56.546Z,101693.63
2023-03-01T21:21:58.639Z,101691.69
2023-03-01T21:27:02.619Z,101684.91
2023-03-01T21:32:05.201Z,101688.44
2023-03-01T21:37:10.594Z,101678.59
2023-03-01T21:42:12.656Z,101681.28
2023-03-01T21:47:14.810Z,101679.69
2023-03-01T21:52:17.272Z,101675.31
2023-03-01T21:57:19.955Z,101672.56
2023-03-01T22:02:21.966Z,101669.41
2023-03-01T22:07:24.018Z,101657.00
2023-03-01T22:12:25.863Z,101654.38
2023-03-01T22:17:27.732Z,101652.72
2023-03-01T22:22:29.543Z,101654.47
2023-03-01T22:27:31.781Z,101665.56
2023-03-01T22:32:33.675Z,101664.44
2023-03-01T22:37:35.750Z,101655.84
2023-03-01T22:42:37.618Z,101657.53
2023-03-01T22:47:39.480Z,101664.72
2023-03-01T22:52:41.604Z,101662.63
2023-03-01T22:57:43.774Z,101648.00
2023-03-01T23:02:45.718Z,101657.56
2023-03-01T23:07:49.159Z,101650.59
2023-03-01T23:12:51.063Z,101665.41
2023-03-01T23:17:52.976Z,101666.41
2023-03-01T23:23:01.890Z,101667.09
2023-03-01T23:28:04.221Z,101668.13
2023-03-01T23:33:06.079Z,101671.72
2023-03-01T23:38:07.972Z,101663.78
2023-03-01T23:43:10.165Z,101662.88
2023-03-01T23:48:14.793Z,101656.81
2023-03-01T23:53:19.672Z,101662.78
2023-03-01T23:58:28.595Z,101670.84
